Time;durP1;ratioP1;P1;durP2;ratioP2;P2;SDS_P1;SDS_P2;PMS_P1;PMS_P2;Temp;Humidity;BMP_temperature;BMP_pressure;BME280_temperature;BME280_humidity;BME280_pressure;Samples;Min_cycle;Max_cycle;Signal;HPM_P1;HPM_P2
2022/07/16 00:03:24;;;;;;;1.00;0.40;;;14.00;99.90;;;;;;5065176;28;20063;-49
2022/07/16 00:05:50;;;;;;;1.63;0.50;;;13.40;99.90;;;;;;5066575;28;20044;-47
2022/07/16 00:08:16;;;;;;;1.90;0.40;;;13.60;99.90;;;;;;5068323;28;20044;-46
2022/07/16 00:10:41;;;;;;;1.65;0.77;;;13.60;99.90;;;;;;5067329;28;20646;-46
2022/07/16 00:13:07;;;;;;;3.17;0.90;;;13.70;99.90;;;;;;5068219;28;20040;-45
2022/07/16 00:15:33;;;;;;;4.45;0.70;;;13.20;99.90;;;;;;5031130;28;1081676;-46
2022/07/16 00:20:43;;;;;;;4.95;1.00;;;13.50;99.90;;;;;;5068824;28;20555;-46
2022/07/16 00:23:08;;;;;;;4.30;1.10;;;13.80;99.90;;;;;;5069279;28;20044;-47
2022/07/16 00:25:34;;;;;;;2.03;0.85;;;13.30;99.90;;;;;;5069282;28;20461;-47
2022/07/16 00:28:00;;;;;;;1.75;0.82;;;13.40;99.90;;;;;;5069180;28;20032;-47
2022/07/16 00:30:26;;;;;;;1.95;0.70;;;13.00;99.90;;;;;;5069264;28;20449;-46
2022/07/16 00:32:52;;;;;;;1.88;0.80;;;13.40;99.90;;;;;;5069157;28;20040;-45
2022/07/16 00:35:18;;;;;;;4.50;0.80;;;13.20;99.90;;;;;;5067705;28;20170;-46
2022/07/16 00:37:44;;;;;;;1.95;0.75;;;13.20;99.90;;;;;;5068352;28;20051;-47
2022/07/16 00:40:10;;;;;;;2.40;0.90;;;13.30;99.90;;;;;;5068859;28;20040;-45
2022/07/16 00:42:35;;;;;;;2.45;0.93;;;13.40;99.90;;;;;;5069060;28;20071;-46
2022/07/16 00:45:01;;;;;;;3.17;0.90;;;13.40;99.90;;;;;;5069282;28;20504;-47
2022/07/16 00:47:27;;;;;;;2.53;1.17;;;13.50;99.90;;;;;;5069007;28;20109;-48
2022/07/16 00:49:52;;;;;;;2.25;0.70;;;13.70;99.90;;;;;;5068990;28;20056;-49
2022/07/16 00:52:18;;;;;;;3.72;0.93;;;13.80;99.90;;;;;;5068605;28;20039;-46
2022/07/16 00:54:44;;;;;;;2.88;0.90;;;13.70;99.90;;;;;;5068853;28;20060;-48
2022/07/16 00:57:09;;;;;;;1.63;0.80;;;14.20;99.90;;;;;;5069271;28;20044;-47
2022/07/16 00:59:35;;;;;;;4.15;1.08;;;13.90;99.90;;;;;;5068951;28;20076;-48
2022/07/16 01:02:01;;;;;;;1.58;0.55;;;13.90;99.90;;;;;;5068492;28;20041;-46
2022/07/16 01:04:27;;;;;;;4.88;1.13;;;14.60;99.90;;;;;;5068535;28;20119;-46
2022/07/16 01:06:53;;;;;;;3.15;1.00;;;14.00;99.90;;;;;;5068250;28;20079;-46
2022/07/16 01:09:20;;;;;;;3.28;1.05;;;14.00;99.90;;;;;;5068218;28;20577;-50
2022/07/16 01:11:47;;;;;;;5.68;1.00;;;13.80;99.90;;;;;;5068384;28;20315;-46
2022/07/16 01:14:14;;;;;;;2.80;0.90;;;14.00;99.90;;;;;;5068229;28;20067;-50
2022/07/16 01:16:40;;;;;;;3.55;0.90;;;14.40;99.90;;;;;;5067167;28;20085;-46
2022/07/16 01:19:08;;;;;;;6.95;2.10;;;14.10;99.90;;;;;;5068038;28;20052;-47
2022/07/16 01:21:34;;;;;;;6.65;1.60;;;14.10;99.90;;;;;;5068207;28;20048;-45
2022/07/16 01:23:59;;;;;;;4.32;1.55;;;14.30;99.90;;;;;;5068132;28;20116;-45
2022/07/16 01:26:25;;;;;;;5.35;1.77;;;14.30;99.90;;;;;;5067992;28;20052;-46
2022/07/16 01:28:51;;;;;;;3.78;1.50;;;14.10;99.90;;;;;;5067438;28;20037;-46
2022/07/16 01:31:18;;;;;;;3.42;2.13;;;14.40;99.90;;;;;;5067998;28;20116;-47
2022/07/16 01:33:43;;;;;;;3.20;2.05;;;14.60;99.90;;;;;;5067843;28;20036;-46
2022/07/16 01:36:13;;;;;;;5.25;2.90;;;14.10;99.90;;;;;;5067433;28;20486;-45
2022/07/16 01:38:44;;;;;;;4.13;2.33;;;14.10;99.90;;;;;;5067895;28;20064;-45
2022/07/16 01:41:11;;;;;;;4.78;3.15;;;14.10;99.90;;;;;;5067372;28;20036;-45
2022/07/16 01:43:37;;;;;;;7.88;3.53;;;14.40;99.90;;;;;;5065788;28;20083;-46
2022/07/16 01:46:04;;;;;;;4.82;3.08;;;14.90;99.90;;;;;;5067727;28;20072;-46
2022/07/16 01:48:30;;;;;;;5.70;3.00;;;14.20;99.90;;;;;;5067399;28;20040;-45
2022/07/16 01:50:56;;;;;;;7.75;3.53;;;14.20;99.90;;;;;;5067316;28;20122;-47
2022/07/16 01:53:22;;;;;;;8.52;3.38;;;14.40;99.90;;;;;;5067295;28;20478;-47
2022/07/16 01:55:48;;;;;;;7.35;3.30;;;14.20;99.90;;;;;;5067467;28;20110;-45
2022/07/16 01:58:15;;;;;;;3.63;2.63;;;14.20;99.90;;;;;;5066960;28;20478;-46
2022/07/16 02:00:44;;;;;;;5.72;3.10;;;14.40;99.90;;;;;;5067231;28;20119;-47
2022/07/16 02:03:10;;;;;;;4.13;2.80;;;14.60;99.90;;;;;;5067128;28;20045;-46
2022/07/16 02:05:36;;;;;;;4.28;2.58;;;14.20;99.90;;;;;;5067205;28;20056;-48
2022/07/16 02:08:03;;;;;;;6.15;2.92;;;14.20;99.90;;;;;;5065448;28;20044;-46
2022/07/16 02:10:29;;;;;;;4.45;3.03;;;14.30;99.90;;;;;;5066462;28;20036;-48
2022/07/16 02:12:55;;;;;;;6.40;2.92;;;14.60;99.90;;;;;;5066895;28;20078;-46
2022/07/16 02:15:21;;;;;;;3.42;2.00;;;14.20;99.90;;;;;;5066731;28;20071;-45
2022/07/16 02:17:47;;;;;;;4.10;2.22;;;14.20;99.90;;;;;;5067050;28;20413;-48
2022/07/16 02:20:13;;;;;;;3.95;2.08;;;14.20;99.90;;;;;;5067419;28;20051;-47
2022/07/16 02:22:39;;;;;;;4.22;2.47;;;14.30;99.90;;;;;;5067507;28;20036;-50
2022/07/16 02:25:06;;;;;;;3.42;1.95;;;14.20;99.90;;;;;;5067294;28;20040;-48
2022/07/16 02:27:32;;;;;;;3.60;2.30;;;14.10;99.90;;;;;;5066773;28;20036;-47
2022/07/16 02:29:59;;;;;;;5.75;2.33;;;14.30;99.90;;;;;;5066606;28;20407;-46
2022/07/16 02:32:25;;;;;;;3.60;2.00;;;14.10;99.90;;;;;;5066698;28;20098;-45
2022/07/16 02:34:51;;;;;;;4.50;2.35;;;14.30;99.90;;;;;;5064981;28;20422;-45
2022/07/16 02:37:18;;;;;;;4.47;2.25;;;14.30;99.90;;;;;;5066813;28;20036;-45
2022/07/16 02:39:43;;;;;;;3.83;1.90;;;13.90;99.90;;;;;;5067097;28;20123;-46
2022/07/16 02:42:09;;;;;;;5.00;2.45;;;13.90;99.90;;;;;;5066792;28;20131;-45
2022/07/16 02:44:35;;;;;;;4.97;1.60;;;13.90;99.90;;;;;;5066709;28;20517;-46
2022/07/16 02:47:00;;;;;;;4.82;1.55;;;14.70;99.90;;;;;;5066493;28;20417;-46
2022/07/16 02:49:26;;;;;;;5.25;1.50;;;13.90;99.90;;;;;;5066749;28;20424;-45
2022/07/16 02:51:52;;;;;;;5.00;1.83;;;13.90;99.90;;;;;;5066933;28;20123;-45
2022/07/16 02:54:18;;;;;;;6.03;1.58;;;14.00;99.90;;;;;;5066716;28;20048;-46
2022/07/16 02:56:43;;;;;;;5.75;1.58;;;14.10;99.90;;;;;;5066011;28;20037;-45
2022/07/16 02:59:09;;;;;;;4.22;1.23;;;13.90;99.90;;;;;;5066387;28;20128;-45
2022/07/16 03:01:35;;;;;;;4.75;1.73;;;13.70;99.90;;;;;;5066692;28;20086;-45
2022/07/16 03:04:00;;;;;;;2.75;1.20;;;14.20;99.90;;;;;;5066445;28;20561;-45
2022/07/16 03:06:26;;;;;;;3.47;1.55;;;13.80;99.90;;;;;;5066580;28;20052;-46
2022/07/16 03:08:52;;;;;;;4.75;1.60;;;14.00;99.90;;;;;;5066542;28;20072;-45
2022/07/16 03:11:18;;;;;;;3.45;1.25;;;13.80;99.90;;;;;;5065925;28;20041;-45
2022/07/16 03:13:43;;;;;;;3.80;1.30;;;13.90;99.90;;;;;;5066652;28;20463;-45
2022/07/16 03:16:09;;;;;;;6.13;1.83;;;14.10;99.90;;;;;;5065474;28;20498;-46
2022/07/16 03:18:35;;;;;;;2.35;1.60;;;13.80;99.90;;;;;;5066287;28;20210;-46
2022/07/16 03:21:00;;;;;;;3.83;2.10;;;14.10;99.90;;;;;;5066432;28;20032;-45
2022/07/16 03:23:26;;;;;;;3.20;1.13;;;14.20;99.90;;;;;;5066500;28;20406;-45
2022/07/16 03:25:52;;;;;;;5.70;1.30;;;13.60;99.90;;;;;;5066846;28;20050;-46
2022/07/16 03:28:17;;;;;;;6.20;1.13;;;13.70;99.90;;;;;;5066422;28;20032;-45
2022/07/16 03:30:43;;;;;;;6.88;1.83;;;14.10;99.90;;;;;;5066373;28;20217;-45
2022/07/16 03:33:09;;;;;;;4.45;1.88;;;14.20;99.90;;;;;;5065887;28;20044;-46
2022/07/16 03:35:34;;;;;;;3.20;1.08;;;13.10;99.90;;;;;;5066695;28;20170;-47
2022/07/16 03:40:44;;;;;;;3.22;1.40;;;12.80;99.90;;;;;;5068214;28;20055;-47
2022/07/16 03:43:10;;;;;;;8.32;1.40;;;12.90;99.90;;;;;;5069959;28;20044;-45
2022/07/16 03:45:36;;;;;;;4.70;1.60;;;12.80;99.90;;;;;;5069948;28;20041;-46
2022/07/16 03:48:01;;;;;;;4.35;1.33;;;12.70;99.90;;;;;;5069668;28;20047;-48
2022/07/16 03:50:27;;;;;;;5.72;1.50;;;12.60;99.90;;;;;;5069852;28;20390;-45
2022/07/16 03:52:53;;;;;;;7.57;1.05;;;12.30;99.90;;;;;;5069838;28;20036;-46
2022/07/16 03:55:19;;;;;;;7.38;1.35;;;13.20;99.90;;;;;;5070089;28;20048;-46
2022/07/16 03:57:45;;;;;;;8.05;1.13;;;12.30;99.90;;;;;;5070244;28;20036;-47
2022/07/16 04:00:11;;;;;;;7.45;1.45;;;13.00;99.90;;;;;;5069447;28;20131;-46
2022/07/16 04:02:37;;;;;;;6.43;1.48;;;12.20;99.90;;;;;;5069923;28;20118;-45
2022/07/16 04:05:04;;;;;;;3.88;1.50;;;12.20;99.90;;;;;;5069628;28;20090;-48
2022/07/16 04:07:30;;;;;;;5.82;1.77;;;12.10;99.90;;;;;;5070295;28;20398;-45
2022/07/16 04:09:55;;;;;;;7.72;1.60;;;12.20;99.90;;;;;;5069596;28;20047;-45
2022/07/16 04:12:22;;;;;;;3.97;1.55;;;12.00;99.90;;;;;;5068044;28;20076;-46
2022/07/16 04:14:48;;;;;;;6.63;1.58;;;12.30;99.90;;;;;;5069724;28;20067;-45
2022/07/16 04:17:13;;;;;;;6.05;1.33;;;12.50;99.90;;;;;;5069531;28;20044;-46
2022/07/16 04:19:39;;;;;;;5.78;1.70;;;12.40;99.90;;;;;;5070109;28;20385;-46
2022/07/16 04:22:05;;;;;;;7.25;1.58;;;12.20;99.90;;;;;;5069343;28;20051;-47
2022/07/16 04:24:30;;;;;;;5.80;1.60;;;12.20;99.90;;;;;;5069578;28;20451;-47
2022/07/16 04:26:56;;;;;;;5.78;1.45;;;12.80;99.90;;;;;;5069627;28;20048;-45
2022/07/16 04:29:22;;;;;;;6.45;1.73;;;13.30;99.90;;;;;;5069217;28;20478;-46
2022/07/16 04:31:47;;;;;;;6.47;2.28;;;12.90;99.90;;;;;;5069195;28;20036;-45
2022/07/16 04:34:13;;;;;;;4.78;1.90;;;12.90;99.90;;;;;;5068804;28;20367;-46
2022/07/16 04:36:39;;;;;;;7.68;1.70;;;12.90;99.90;;;;;;5068899;28;20040;-46
2022/07/16 04:39:04;;;;;;;6.03;1.95;;;12.60;99.90;;;;;;5069159;28;20119;-46
2022/07/16 04:41:30;;;;;;;6.65;1.80;;;12.70;99.90;;;;;;5069143;28;20126;-45
2022/07/16 04:43:56;;;;;;;6.60;1.52;;;12.90;99.90;;;;;;5069007;28;20052;-48
2022/07/16 04:46:21;;;;;;;6.40;1.50;;;13.20;99.90;;;;;;5068836;28;20036;-45
2022/07/16 04:48:47;;;;;;;7.30;1.90;;;13.40;99.90;;;;;;5069145;28;20048;-45
2022/07/16 04:51:13;;;;;;;5.20;1.23;;;13.30;99.90;;;;;;5068805;28;20036;-46
2022/07/16 04:53:38;;;;;;;5.70;1.67;;;13.50;99.90;;;;;;5068885;28;20098;-45
2022/07/16 04:56:04;;;;;;;7.85;1.58;;;13.20;99.90;;;;;;5069107;28;20407;-46
2022/07/16 04:58:30;;;;;;;7.75;1.83;;;13.20;99.90;;;;;;5068523;28;20120;-45
2022/07/16 05:00:55;;;;;;;6.35;1.50;;;13.30;99.90;;;;;;5068486;28;20663;-45
2022/07/16 05:03:24;;;;;;;6.00;1.50;;;13.40;99.90;;;;;;5068103;28;20048;-46
2022/07/16 05:05:50;;;;;;;7.72;1.50;;;13.80;99.90;;;;;;5068483;28;20048;-45
2022/07/16 05:08:15;;;;;;;4.22;1.90;;;14.50;99.90;;;;;;5068551;28;20048;-46
2022/07/16 05:10:41;;;;;;;6.78;1.52;;;14.20;99.90;;;;;;5067773;28;20393;-45
2022/07/16 05:13:10;;;;;;;7.38;1.58;;;14.00;99.90;;;;;;5068310;28;20074;-45
2022/07/16 05:15:36;;;;;;;7.45;1.40;;;14.30;99.90;;;;;;5067963;28;20064;-45
2022/07/16 05:18:02;;;;;;;3.85;1.20;;;14.90;99.90;;;;;;5068207;28;20317;-47
2022/07/16 05:20:28;;;;;;;4.05;1.17;;;14.90;99.90;;;;;;5068345;28;20079;-46
2022/07/16 05:22:54;;;;;;;5.90;1.23;;;15.40;99.90;;;;;;5067947;28;20044;-46
2022/07/16 05:25:20;;;;;;;4.88;1.10;;;15.30;99.90;;;;;;5067736;28;20498;-46
2022/07/16 05:27:46;;;;;;;4.57;0.90;;;15.60;99.90;;;;;;5068390;28;20079;-46
2022/07/16 05:30:13;;;;;;;8.70;1.05;;;15.80;99.90;;;;;;5067772;28;20036;-48
2022/07/16 05:32:39;;;;;;;2.72;0.68;;;15.90;99.90;;;;;;5068101;28;20051;-45
2022/07/16 05:35:05;;;;;;;5.63;0.70;;;16.20;99.90;;;;;;5068130;28;20056;-46
2022/07/16 05:37:31;;;;;;;6.18;0.80;;;16.00;99.90;;;;;;5067489;28;20506;-46
2022/07/16 05:39:56;;;;;;;3.75;0.73;;;16.60;99.90;;;;;;5067506;28;20373;-46
2022/07/16 05:42:22;;;;;;;6.32;1.20;;;16.30;99.90;;;;;;5067674;28;20119;-46
2022/07/16 05:44:48;;;;;;;4.60;0.75;;;16.30;99.90;;;;;;5067969;28;20044;-47
2022/07/16 05:47:13;;;;;;;9.80;0.80;;;17.60;99.90;;;;;;5067913;28;20032;-47
2022/07/16 05:49:39;;;;;;;8.23;0.80;;;18.00;99.90;;;;;;5068108;28;20123;-47
2022/07/16 05:52:05;;;;;;;6.95;0.93;;;18.00;99.90;;;;;;5068215;28;20528;-47
2022/07/16 05:54:30;;;;;;;6.32;0.52;;;18.10;99.90;;;;;;5067499;28;20474;-51
2022/07/16 05:56:56;;;;;;;8.93;0.60;;;18.20;99.90;;;;;;5066496;28;20040;-47
2022/07/16 05:59:22;;;;;;;3.95;0.40;;;18.70;99.90;;;;;;5067751;28;20036;-46
2022/07/16 06:01:48;;;;;;;5.72;1.35;;;18.50;99.90;;;;;;5067246;28;20485;-46
2022/07/16 06:04:13;;;;;;;6.88;1.02;;;18.60;99.90;;;;;;5066706;28;20040;-46
2022/07/16 06:06:39;;;;;;;7.18;0.65;;;18.70;99.90;;;;;;5067106;28;20485;-47
2022/07/16 06:09:05;;;;;;;6.88;0.52;;;18.70;99.90;;;;;;5067225;28;20553;-47
2022/07/16 06:11:30;;;;;;;4.63;0.40;;;18.70;99.90;;;;;;5065969;28;20583;-47
2022/07/16 06:13:56;;;;;;;6.93;0.50;;;18.90;99.90;;;;;;5066212;28;20048;-47
2022/07/16 06:16:22;;;;;;;2.65;0.40;;;19.40;99.90;;;;;;5066739;28;20045;-47
2022/07/16 06:18:48;;;;;;;4.13;0.50;;;19.80;99.90;;;;;;5067313;28;20044;-46
2022/07/16 06:21:14;;;;;;;2.97;0.38;;;19.80;99.90;;;;;;5066838;28;20052;-47
2022/07/16 06:23:40;;;;;;;4.10;0.30;;;20.00;99.90;;;;;;5066811;28;20048;-47
2022/07/16 06:26:06;;;;;;;5.38;0.30;;;20.40;99.90;;;;;;5067347;28;20045;-46
2022/07/16 06:28:31;;;;;;;5.05;0.63;;;20.80;99.90;;;;;;5066165;28;20080;-48
2022/07/16 06:30:57;;;;;;;4.95;0.40;;;21.70;97.00;;;;;;5066873;28;20504;-46
2022/07/16 06:33:23;;;;;;;6.43;0.75;;;21.80;96.20;;;;;;5066487;28;20125;-47
2022/07/16 06:35:48;;;;;;;5.25;0.30;;;23.50;93.30;;;;;;5066126;28;20041;-49
2022/07/16 06:38:14;;;;;;;5.28;0.40;;;23.20;92.20;;;;;;5066418;28;20040;-48
2022/07/16 06:40:44;;;;;;;2.80;0.30;;;23.00;90.90;;;;;;5065791;28;20049;-48
2022/07/16 06:43:10;;;;;;;4.93;0.30;;;22.50;89.70;;;;;;5066330;28;20457;-46
2022/07/16 06:45:36;;;;;;;3.33;0.40;;;22.60;88.10;;;;;;5066338;28;20052;-47
2022/07/16 06:48:02;;;;;;;6.85;0.63;;;24.20;84.10;;;;;;5066367;28;20067;-47
2022/07/16 06:50:28;;;;;;;2.78;0.35;;;26.40;81.00;;;;;;5066128;28;20052;-47
2022/07/16 06:52:53;;;;;;;3.63;0.20;;;28.00;76.10;;;;;;5066308;28;20076;-48
2022/07/16 06:55:19;;;;;;;3.40;0.38;;;29.60;69.60;;;;;;5065794;28;20242;-51
2022/07/16 06:57:45;;;;;;;4.20;0.30;;;30.80;65.10;;;;;;5066543;28;20046;-49
2022/07/16 07:00:11;;;;;;;3.17;0.40;;;31.90;62.50;;;;;;5066169;28;20044;-47
2022/07/16 07:02:37;;;;;;;4.65;0.30;;;32.80;59.20;;;;;;5066252;28;20036;-47
2022/07/16 07:05:03;;;;;;;3.70;0.32;;;33.70;57.50;;;;;;5066499;28;20498;-48
2022/07/16 07:07:29;;;;;;;3.85;0.38;;;34.20;54.90;;;;;;5066212;28;20051;-52
2022/07/16 07:09:55;;;;;;;1.65;0.20;;;34.30;53.90;;;;;;5066039;28;20040;-48
2022/07/16 07:12:20;;;;;;;1.85;0.28;;;34.90;52.80;;;;;;5066708;28;20047;-49
2022/07/16 07:14:46;;;;;;;3.47;0.30;;;35.10;51.20;;;;;;5066913;28;20052;-50
2022/07/16 07:17:12;;;;;;;3.42;0.45;;;35.60;50.30;;;;;;5071154;28;20044;-51
2022/07/16 07:19:37;;;;;;;3.20;0.30;;;36.00;49.10;;;;;;5070609;28;20107;-52
2022/07/16 07:22:03;;;;;;;2.08;0.20;;;36.60;48.60;;;;;;5070837;28;20044;-52
2022/07/16 07:24:29;;;;;;;3.40;0.40;;;37.20;47.90;;;;;;5070380;28;20049;-50
2022/07/16 07:26:54;;;;;;;5.95;0.50;;;37.70;46.30;;;;;;5070026;28;20076;-53
2022/07/16 07:29:20;;;;;;;3.95;0.40;;;38.10;45.40;;;;;;5070501;28;20041;-52
2022/07/16 07:31:46;;;;;;;2.33;0.20;;;38.70;45.30;;;;;;5070058;28;20106;-50
2022/07/16 07:34:11;;;;;;;2.78;0.30;;;37.80;43.20;;;;;;5070118;28;20402;-52
2022/07/16 07:36:37;;;;;;;2.33;0.20;;;37.50;43.10;;;;;;5069833;28;20419;-51
2022/07/16 07:39:03;;;;;;;2.58;0.10;;;38.00;43.00;;;;;;5069631;28;20036;-52
2022/07/16 07:41:28;;;;;;;5.57;0.20;;;38.60;42.40;;;;;;5069635;28;20106;-50
2022/07/16 07:43:54;;;;;;;2.10;0.30;;;39.00;41.00;;;;;;5069873;28;20110;-49
2022/07/16 07:46:20;;;;;;;2.75;0.15;;;39.60;41.20;;;;;;5070123;28;20055;-50
2022/07/16 07:48:46;;;;;;;2.00;0.22;;;38.80;41.00;;;;;;5069466;28;20086;-50
2022/07/16 07:51:12;;;;;;;3.75;0.38;;;38.20;41.00;;;;;;5069822;28;20179;-51
2022/07/16 07:53:37;;;;;;;3.78;0.10;;;38.40;41.20;;;;;;5069362;28;20040;-50
2022/07/16 07:56:04;;;;;;;2.38;0.20;;;37.70;40.40;;;;;;5069393;28;20044;-52
2022/07/16 07:58:29;;;;;;;3.97;0.20;;;36.20;40.50;;;;;;5069250;28;20054;-50
2022/07/16 08:00:55;;;;;;;2.33;0.20;;;34.50;40.80;;;;;;5069556;28;20033;-50
2022/07/16 08:03:21;;;;;;;5.47;0.20;;;33.00;42.50;;;;;;5070099;28;20044;-48
2022/07/16 08:05:47;;;;;;;4.07;0.20;;;31.70;43.40;;;;;;5068090;28;20093;-47
2022/07/16 08:08:13;;;;;;;3.25;0.47;;;30.30;43.90;;;;;;5069706;28;20420;-48
2022/07/16 08:10:39;;;;;;;1.52;0.13;;;29.30;45.60;;;;;;5068786;28;20098;-47
2022/07/16 08:13:05;;;;;;;3.83;0.22;;;28.60;47.40;;;;;;5069780;28;20401;-48
2022/07/16 08:15:31;;;;;;;0.90;0.15;;;28.40;47.30;;;;;;5069463;28;20049;-48
2022/07/16 08:17:57;;;;;;;2.47;0.20;;;29.90;47.70;;;;;;5069921;28;20131;-50
2022/07/16 08:20:23;;;;;;;2.75;0.10;;;31.70;45.60;;;;;;5069050;28;20041;-47
2022/07/16 08:22:48;;;;;;;1.92;0.20;;;33.40;45.10;;;;;;5068913;28;20123;-48
2022/07/16 08:27:58;;;;;;;2.88;0.30;;;36.20;42.20;;;;;;5069307;28;20055;-48
2022/07/16 08:30:24;;;;;;;2.47;0.20;;;36.40;41.20;;;;;;5069213;28;20036;-48
2022/07/16 08:32:50;;;;;;;2.83;0.20;;;37.40;40.80;;;;;;5067842;28;20044;-48
2022/07/16 08:35:16;;;;;;;3.55;0.20;;;37.40;39.50;;;;;;5068972;28;20075;-47
2022/07/16 08:37:43;;;;;;;3.88;0.20;;;37.10;40.00;;;;;;5068455;28;20041;-48
2022/07/16 08:40:15;;;;;;;2.53;0.20;;;36.50;39.50;;;;;;5069241;28;20124;-48
2022/07/16 08:42:41;;;;;;;3.78;0.30;;;35.50;40.20;;;;;;5069135;28;20040;-48
2022/07/16 08:45:09;;;;;;;2.97;0.43;;;34.00;39.50;;;;;;5069025;28;20570;-48
2022/07/16 08:47:36;;;;;;;2.85;0.30;;;32.80;41.30;;;;;;5068590;28;20048;-47
2022/07/16 08:50:05;;;;;;;3.13;0.22;;;31.60;42.70;;;;;;5068929;28;20067;-48
2022/07/16 08:52:32;;;;;;;4.07;0.28;;;30.30;44.50;;;;;;5068627;28;20050;-47
2022/07/16 08:54:58;;;;;;;1.83;0.10;;;29.30;45.80;;;;;;5068454;28;20048;-47
2022/07/16 08:57:25;;;;;;;2.08;0.20;;;28.60;46.40;;;;;;5066952;28;20435;-44
2022/07/16 08:59:52;;;;;;;2.75;0.28;;;28.10;47.70;;;;;;5068437;28;20040;-47
2022/07/16 09:02:18;;;;;;;4.03;0.28;;;27.90;48.30;;;;;;5067936;28;20505;-46
2022/07/16 09:04:44;;;;;;;2.35;0.20;;;28.10;49.00;;;;;;5068326;28;20044;-47
2022/07/16 09:07:14;;;;;;;3.47;0.30;;;29.60;49.40;;;;;;5068825;28;20036;-49
2022/07/16 09:09:40;;;;;;;5.47;0.45;;;30.40;48.30;;;;;;5067971;28;20119;-47
2022/07/16 09:12:06;;;;;;;4.22;0.60;;;30.10;46.80;;;;;;5068884;28;20051;-47
2022/07/16 09:14:32;;;;;;;2.63;0.40;;;29.60;47.30;;;;;;5068275;28;20048;-47
2022/07/16 09:16:58;;;;;;;6.10;0.63;;;29.30;49.00;;;;;;5067906;28;20421;-48
2022/07/16 09:19:27;;;;;;;3.13;0.40;;;29.40;48.30;;;;;;5068501;28;20394;-51
2022/07/16 09:22:12;;;;;;;8.32;1.55;;;29.60;47.90;;;;;;5068156;28;20098;-56
2022/07/16 09:24:42;;;;;;;2.35;0.40;;;28.50;47.30;;;;;;5060242;28;20044;-52
2022/07/16 09:27:10;;;;;;;2.28;0.20;;;28.70;47.90;;;;;;5062521;28;20051;-57
2022/07/16 09:30:02;;;;;;;3.63;0.25;;;27.90;49.10;;;;;;5065115;28;20049;-57
2022/07/16 09:32:37;;;;;;;5.80;0.35;;;27.20;48.70;;;;;;5066193;28;20083;-57
2022/07/16 09:35:13;;;;;;;5.18;0.60;;;27.10;51.60;;;;;;5065990;28;20052;-50
2022/07/16 09:37:45;;;;;;;5.15;0.20;;;27.60;51.30;;;;;;5064981;28;20044;-56
2022/07/16 09:40:12;;;;;;;5.03;0.52;;;27.60;51.70;;;;;;5065361;28;20114;-56
2022/07/16 09:42:39;;;;;;;5.82;0.43;;;27.40;52.00;;;;;;5065621;28;20051;-56
2022/07/16 09:45:18;;;;;;;1.80;0.30;;;27.10;51.40;;;;;;5065630;28;20135;-53
2022/07/16 09:47:44;;;;;;;6.28;0.73;;;26.80;50.90;;;;;;5064063;28;20048;-57
2022/07/16 09:50:10;;;;;;;3.17;0.28;;;26.90;51.70;;;;;;5063604;28;20489;-56
2022/07/16 09:52:36;;;;;;;4.75;0.43;;;27.90;52.60;;;;;;5063885;28;20051;-55
2022/07/16 09:55:02;;;;;;;4.35;0.70;;;29.70;52.40;;;;;;5063718;28;20152;-54
2022/07/16 09:57:30;;;;;;;4.50;0.40;;;31.60;50.10;;;;;;5065226;28;20032;-57
2022/07/16 09:59:57;;;;;;;3.53;0.30;;;34.00;47.10;;;;;;5065480;28;20048;-56
2022/07/16 10:02:23;;;;;;;1.27;0.30;;;34.40;44.90;;;;;;5065316;28;20047;-56
2022/07/16 10:04:49;;;;;;;4.07;0.20;;;35.60;44.30;;;;;;5063670;28;20151;-56
2022/07/16 10:07:19;;;;;;;2.28;0.40;;;36.60;42.90;;;;;;5063395;28;20079;-56
2022/07/16 10:09:45;;;;;;;3.92;0.50;;;36.00;41.30;;;;;;5064237;28;20174;-56
2022/07/16 10:12:13;;;;;;;2.15;0.28;;;35.10;42.40;;;;;;5065057;28;20045;-54
2022/07/16 10:14:52;;;;;;;3.55;0.30;;;35.40;42.90;;;;;;5063602;28;20167;-54
2022/07/16 10:17:38;;;;;;;4.93;0.40;;;36.00;42.00;;;;;;5063266;28;20449;-56
2022/07/16 10:20:08;;;;;;;3.30;0.35;;;36.90;40.70;;;;;;5065054;28;20048;-52
2022/07/16 10:22:39;;;;;;;4.63;0.28;;;37.50;39.90;;;;;;5064433;28;20441;-51
2022/07/16 10:25:32;;;;;;;4.63;0.35;;;38.00;38.80;;;;;;5063716;28;20052;-50
2022/07/16 10:27:58;;;;;;;4.90;0.50;;;37.70;38.10;;;;;;5062581;28;20052;-48
2022/07/16 10:30:32;;;;;;;5.88;0.50;;;36.40;38.60;;;;;;5065405;28;20127;-48
2022/07/16 10:33:02;;;;;;;1.98;0.30;;;35.20;39.40;;;;;;5064972;28;20127;-50
2022/07/16 10:36:03;;;;;;;4.22;0.40;;;34.10;40.40;;;;;;5065251;28;20048;-49
2022/07/16 10:38:28;;;;;;;3.55;0.22;;;34.00;41.10;;;;;;5062430;28;20071;-50
2022/07/16 10:41:06;;;;;;;3.33;0.20;;;34.70;41.70;;;;;;5065012;28;20048;-50
2022/07/16 10:43:32;;;;;;;2.45;0.40;;;35.70;41.40;;;;;;5064921;28;20045;-56
2022/07/16 10:45:59;;;;;;;2.33;0.28;;;36.60;40.40;;;;;;5064696;28;20140;-55
2022/07/16 10:48:35;;;;;;;3.58;0.20;;;37.50;39.70;;;;;;5064945;28;20072;-48
2022/07/16 10:51:15;;;;;;;2.50;0.30;;;36.90;37.80;;;;;;5064660;28;20040;-57
2022/07/16 10:54:21;;;;;;;4.43;0.68;;;35.50;37.20;;;;;;5064550;28;20120;-47
2022/07/16 10:56:48;;;;;;;2.00;0.20;;;34.90;40.20;;;;;;5062884;28;20048;-48
2022/07/16 10:59:32;;;;;;;2.47;0.40;;;34.10;39.90;;;;;;5065344;28;20119;-48
2022/07/16 11:02:03;;;;;;;1.95;0.20;;;33.10;41.20;;;;;;5064651;28;20045;-50
2022/07/16 11:04:35;;;;;;;2.17;0.47;;;32.30;42.60;;;;;;5065076;28;20051;-56
2022/07/16 11:07:07;;;;;;;1.10;0.20;;;31.70;43.50;;;;;;5065043;28;20048;-49
2022/07/16 11:09:34;;;;;;;4.90;0.22;;;31.30;43.80;;;;;;5063965;28;20055;-51
2022/07/16 11:12:15;;;;;;;2.53;0.10;;;30.60;43.60;;;;;;5064700;28;20652;-54
2022/07/16 11:14:43;;;;;;;2.07;0.20;;;29.90;43.10;;;;;;5066859;28;20671;-48
2022/07/16 11:17:09;;;;;;;5.80;0.20;;;29.00;45.00;;;;;;5064685;28;20357;-44
2022/07/16 11:19:38;;;;;;;2.22;0.20;;;28.30;46.40;;;;;;5063051;28;20059;-49
2022/07/16 11:22:04;;;;;;;2.47;0.30;;;28.00;47.70;;;;;;5064501;28;20382;-52
2022/07/16 11:24:32;;;;;;;2.80;0.30;;;27.50;48.60;;;;;;5064385;28;20052;-47
2022/07/16 11:26:58;;;;;;;1.35;0.10;;;27.50;49.40;;;;;;5064405;28;20048;-49
2022/07/16 11:29:26;;;;;;;6.50;0.50;;;27.50;49.20;;;;;;5064826;28;20100;-53
2022/07/16 11:31:52;;;;;;;4.57;0.65;;;27.20;49.70;;;;;;5064849;28;20040;-48
2022/07/16 11:34:19;;;;;;;1.23;0.20;;;27.00;50.10;;;;;;5064812;28;20041;-51
2022/07/16 11:36:50;;;;;;;2.97;0.30;;;26.90;51.50;;;;;;5062915;28;20497;-47
2022/07/16 11:39:19;;;;;;;4.25;0.40;;;26.70;51.50;;;;;;5062407;28;20047;-47
2022/07/16 11:41:46;;;;;;;7.10;0.35;;;26.70;51.80;;;;;;5064584;28;20082;-48
2022/07/16 11:44:32;;;;;;;4.60;0.30;;;26.70;51.30;;;;;;5062772;28;20040;-49
2022/07/16 11:47:06;;;;;;;2.17;0.20;;;26.70;52.00;;;;;;5063153;28;20123;-46
2022/07/16 11:49:44;;;;;;;6.95;0.52;;;26.40;51.60;;;;;;5064175;28;20076;-45
2022/07/16 11:52:20;;;;;;;4.20;0.30;;;26.00;51.20;;;;;;5062573;28;20080;-45
2022/07/16 11:54:47;;;;;;;1.73;0.17;;;25.90;51.40;;;;;;5064322;28;20389;-48
2022/07/16 11:57:13;;;;;;;3.25;0.10;;;25.90;51.90;;;;;;5064324;28;20494;-46
2022/07/16 11:59:47;;;;;;;3.25;0.35;;;25.90;53.10;;;;;;5064181;28;20040;-47
2022/07/16 12:02:14;;;;;;;1.70;0.20;;;25.80;53.40;;;;;;5066640;28;20080;-47
2022/07/16 12:04:43;;;;;;;2.08;0.22;;;25.80;52.80;;;;;;5067620;28;20493;-49
2022/07/16 12:07:15;;;;;;;2.65;0.20;;;26.10;53.30;;;;;;5067034;28;20363;-50
2022/07/16 12:09:44;;;;;;;5.75;0.55;;;26.20;53.80;;;;;;5065331;28;20074;-50
2022/07/16 12:12:13;;;;;;;4.10;0.35;;;26.20;53.10;;;;;;5066969;28;20429;-48
2022/07/16 12:14:49;;;;;;;2.53;0.40;;;26.10;53.00;;;;;;5067322;28;20063;-46
2022/07/16 12:17:31;;;;;;;2.20;0.22;;;25.80;52.90;;;;;;5067995;28;20071;-50
2022/07/16 12:20:08;;;;;;;4.20;0.40;;;25.60;53.30;;;;;;5067089;28;20059;-51
2022/07/16 12:22:51;;;;;;;3.97;0.40;;;25.30;54.30;;;;;;5066862;28;20084;-51
2022/07/16 12:25:32;;;;;;;3.42;0.30;;;25.30;56.60;;;;;;5048871;28;20048;-52
2022/07/16 12:28:02;;;;;;;3.22;0.40;;;25.20;55.00;;;;;;5068054;28;20393;-53
2022/07/16 12:30:39;;;;;;;3.25;0.30;;;25.00;54.50;;;;;;5069114;28;20044;-53
2022/07/16 12:33:09;;;;;;;3.10;0.28;;;25.10;55.00;;;;;;5068715;28;20135;-53
2022/07/16 12:35:43;;;;;;;3.30;0.45;;;24.80;53.70;;;;;;5069375;28;20032;-51
2022/07/16 12:38:39;;;;;;;3.88;0.22;;;24.10;53.50;;;;;;5069328;28;20453;-53
2022/07/16 12:41:12;;;;;;;5.18;0.60;;;24.00;52.60;;;;;;5069058;28;20051;-53
2022/07/16 12:43:39;;;;;;;4.55;0.45;;;23.60;54.70;;;;;;5068870;28;20102;-53
2022/07/16 12:46:06;;;;;;;6.28;0.40;;;23.30;56.00;;;;;;5068438;28;20482;-52
2022/07/16 12:48:50;;;;;;;4.57;0.32;;;23.10;56.80;;;;;;5068999;28;20457;-51
2022/07/16 12:51:22;;;;;;;3.83;0.30;;;23.00;56.50;;;;;;5068454;28;20053;-50
2022/07/16 12:53:48;;;;;;;;;;;22.80;57.00;;;;;;5069091;28;20611;-53
2022/07/16 12:58:59;;;;;;;2.35;0.20;;;22.60;57.40;;;;;;5068761;28;20127;-53
2022/07/16 13:01:25;;;;;;;3.67;0.25;;;22.60;58.70;;;;;;5069140;28;20056;-47
2022/07/16 13:03:52;;;;;;;5.03;0.50;;;22.40;58.90;;;;;;5068081;28;20048;-48